sensor_id;sensor_type;location;lat;lon;timestamp;temperature;humidity
75838;SHT30;64480;52.040;113.502;2023-01-01T00:00:58;-17.41;57.97
75838;SHT30;64480;52.040;113.502;2023-01-01T00:04:22;-17.41;57.99
75838;SHT30;64480;52.040;113.502;2023-01-01T00:07:40;-17.39;57.81
75838;SHT30;64480;52.040;113.502;2023-01-01T00:10:52;-17.35;57.84
75838;SHT30;64480;52.040;113.502;2023-01-01T00:14:03;-17.35;57.88
75838;SHT30;64480;52.040;113.502;2023-01-01T00:17:22;-17.36;57.91
75838;SHT30;64480;52.040;113.502;2023-01-01T00:20:27;-17.36;57.90
75838;SHT30;64480;52.040;113.502;2023-01-01T00:23:44;-17.39;57.67
75838;SHT30;64480;52.040;113.502;2023-01-01T00:26:48;-17.34;57.74
75838;SHT30;64480;52.040;113.502;2023-01-01T00:33:23;-17.27;57.43
75838;SHT30;64480;52.040;113.502;2023-01-01T00:36:29;-17.28;57.45
75838;SHT30;64480;52.040;113.502;2023-01-01T00:39:48;-17.21;57.40
75838;SHT30;64480;52.040;113.502;2023-01-01T00:42:53;-17.15;57.29
75838;SHT30;64480;52.040;113.502;2023-01-01T00:46:13;-17.17;57.15
75838;SHT30;64480;52.040;113.502;2023-01-01T00:49:52;-17.13;57.01
75838;SHT30;64480;52.040;113.502;2023-01-01T00:52:59;-17.17;57.02
75838;SHT30;64480;52.040;113.502;2023-01-01T01:02:29;-17.17;57.06
75838;SHT30;64480;52.040;113.502;2023-01-01T01:09:19;-17.08;56.84
75838;SHT30;64480;52.040;113.502;2023-01-01T01:12:37;-17.10;56.95
75838;SHT30;64480;52.040;113.502;2023-01-01T01:15:57;-17.00;56.88
75838;SHT30;64480;52.040;113.502;2023-01-01T01:19:14;-16.96;56.66
75838;SHT30;64480;52.040;113.502;2023-01-01T01:22:29;-16.87;56.35
75838;SHT30;64480;52.040;113.502;2023-01-01T01:25:41;-16.89;56.31
75838;SHT30;64480;52.040;113.502;2023-01-01T01:28:51;-16.86;56.29
75838;SHT30;64480;52.040;113.502;2023-01-01T01:32:11;-16.80;56.28
75838;SHT30;64480;52.040;113.502;2023-01-01T01:35:30;-16.72;56.18
75838;SHT30;64480;52.040;113.502;2023-01-01T01:38:44;-16.67;55.86
75838;SHT30;64480;52.040;113.502;2023-01-01T01:42:03;-16.65;56.00
75838;SHT30;64480;52.040;113.502;2023-01-01T01:45:21;-16.56;55.82
75838;SHT30;64480;52.040;113.502;2023-01-01T01:48:48;-16.48;55.62
75838;SHT30;64480;52.040;113.502;2023-01-01T01:52:06;-16.34;55.27
75838;SHT30;64480;52.040;113.502;2023-01-01T01:55:31;-16.17;54.84
75838;SHT30;64480;52.040;113.502;2023-01-01T01:58:49;-16.17;54.66
75838;SHT30;64480;52.040;113.502;2023-01-01T02:01:58;-16.14;54.54
75838;SHT30;64480;52.040;113.502;2023-01-01T02:05:34;-16.03;54.34
75838;SHT30;64480;52.040;113.502;2023-01-01T02:08:56;-16.00;54.29
75838;SHT30;64480;52.040;113.502;2023-01-01T02:12:15;-15.89;54.37
75838;SHT30;64480;52.040;113.502;2023-01-01T02:15:54;-15.78;53.94
75838;SHT30;64480;52.040;113.502;2023-01-01T02:30:34;-15.51;53.20
75838;SHT30;64480;52.040;113.502;2023-01-01T02:33:57;-15.43;52.88
75838;SHT30;64480;52.040;113.502;2023-01-01T02:37:20;-15.31;52.77
75838;SHT30;64480;52.040;113.502;2023-01-01T02:44:26;-15.22;52.53
75838;SHT30;64480;52.040;113.502;2023-01-01T02:47:44;-15.09;52.31
75838;SHT30;64480;52.040;113.502;2023-01-01T02:54:59;-15.10;51.94
75838;SHT30;64480;52.040;113.502;2023-01-01T02:58:44;-15.07;51.96
75838;SHT30;64480;52.040;113.502;2023-01-01T03:02:29;-15.00;51.79
75838;SHT30;64480;52.040;113.502;2023-01-01T03:06:03;-14.93;51.56
75838;SHT30;64480;52.040;113.502;2023-01-01T03:13:57;-14.91;51.46
75838;SHT30;64480;52.040;113.502;2023-01-01T03:26:02;-14.60;51.13
75838;SHT30;64480;52.040;113.502;2023-01-01T03:29:43;-14.57;50.88
75838;SHT30;64480;52.040;113.502;2023-01-01T03:33:29;-14.49;50.80
75838;SHT30;64480;52.040;113.502;2023-01-01T03:36:52;-14.34;50.74
75838;SHT30;64480;52.040;113.502;2023-01-01T03:40:16;-14.28;50.53
75838;SHT30;64480;52.040;113.502;2023-01-01T03:47:27;-14.01;50.04
75838;SHT30;64480;52.040;113.502;2023-01-01T03:51:12;-13.96;49.94
75838;SHT30;64480;52.040;113.502;2023-01-01T03:55:03;-13.79;49.94
75838;SHT30;64480;52.040;113.502;2023-01-01T03:58:34;-13.74;49.69
75838;SHT30;64480;52.040;113.502;2023-01-01T04:01:58;-13.67;49.50
75838;SHT30;64480;52.040;113.502;2023-01-01T04:05:39;-13.57;49.60
75838;SHT30;64480;52.040;113.502;2023-01-01T04:09:07;-13.46;49.25
75838;SHT30;64480;52.040;113.502;2023-01-01T04:12:27;-13.32;49.00
75838;SHT30;64480;52.040;113.502;2023-01-01T04:16:05;-13.23;49.00
75838;SHT30;64480;52.040;113.502;2023-01-01T04:19:53;-13.08;48.72
75838;SHT30;64480;52.040;113.502;2023-01-01T04:23:34;-13.02;48.46
75838;SHT30;64480;52.040;113.502;2023-01-01T04:27:05;-12.97;48.23
75838;SHT30;64480;52.040;113.502;2023-01-01T04:30:23;-12.97;48.36
75838;SHT30;64480;52.040;113.502;2023-01-01T04:33:36;-12.88;48.37
75838;SHT30;64480;52.040;113.502;2023-01-01T04:36:59;-12.81;48.22
75838;SHT30;64480;52.040;113.502;2023-01-01T04:40:25;-12.80;48.30
75838;SHT30;64480;52.040;113.502;2023-01-01T04:43:31;-12.73;48.19
75838;SHT30;64480;52.040;113.502;2023-01-01T04:46:48;-12.63;47.79
75838;SHT30;64480;52.040;113.502;2023-01-01T04:50:07;-12.59;47.58
75838;SHT30;64480;52.040;113.502;2023-01-01T04:53:32;-12.57;47.87
75838;SHT30;64480;52.040;113.502;2023-01-01T04:56:50;-12.55;47.71
75838;SHT30;64480;52.040;113.502;2023-01-01T05:00:07;-12.50;47.62
75838;SHT30;64480;52.040;113.502;2023-01-01T05:03:25;-12.36;47.98
75838;SHT30;64480;52.040;113.502;2023-01-01T05:06:44;-12.25;47.28
75838;SHT30;64480;52.040;113.502;2023-01-01T05:10:25;-12.14;47.05
75838;SHT30;64480;52.040;113.502;2023-01-01T05:13:44;-12.02;46.79
75838;SHT30;64480;52.040;113.502;2023-01-01T05:17:03;-12.01;46.43
75838;SHT30;64480;52.040;113.502;2023-01-01T05:20:20;-11.84;46.27
75838;SHT30;64480;52.040;113.502;2023-01-01T05:23:55;-11.36;45.26
75838;SHT30;64480;52.040;113.502;2023-01-01T05:27:15;-11.31;44.70
75838;SHT30;64480;52.040;113.502;2023-01-01T05:30:31;-11.44;45.04
75838;SHT30;64480;52.040;113.502;2023-01-01T05:33:46;-11.51;45.31
75838;SHT30;64480;52.040;113.502;2023-01-01T05:37:05;-11.53;45.56
75838;SHT30;64480;52.040;113.502;2023-01-01T05:40:23;-11.51;45.78
75838;SHT30;64480;52.040;113.502;2023-01-01T05:43:41;-11.49;45.62
75838;SHT30;64480;52.040;113.502;2023-01-01T05:47:03;-11.42;45.89
75838;SHT30;64480;52.040;113.502;2023-01-01T05:50:20;-11.51;45.76
75838;SHT30;64480;52.040;113.502;2023-01-01T05:53:38;-11.49;46.11
75838;SHT30;64480;52.040;113.502;2023-01-01T05:57:03;-11.52;46.27
75838;SHT30;64480;52.040;113.502;2023-01-01T06:00:38;-11.58;46.53
75838;SHT30;64480;52.040;113.502;2023-01-01T06:03:56;-11.63;47.16
75838;SHT30;64480;52.040;113.502;2023-01-01T06:07:33;-11.69;47.27
75838;SHT30;64480;52.040;113.502;2023-01-01T06:10:58;-11.69;47.48
75838;SHT30;64480;52.040;113.502;2023-01-01T06:14:17;-11.74;47.54
75838;SHT30;64480;52.040;113.502;2023-01-01T06:17:33;-11.89;47.89
75838;SHT30;64480;52.040;113.502;2023-01-01T06:20:50;-11.77;48.04
75838;SHT30;64480;52.040;113.502;2023-01-01T06:24:07;-11.61;47.76
75838;SHT30;64480;52.040;113.502;2023-01-01T06:27:26;-11.34;46.41
75838;SHT30;64480;52.040;113.502;2023-01-01T06:30:49;-11.38;46.93
75838;SHT30;64480;52.040;113.502;2023-01-01T06:33:59;-11.35;46.77
75838;SHT30;64480;52.040;113.502;2023-01-01T06:37:34;-11.41;47.01
75838;SHT30;64480;52.040;113.502;2023-01-01T06:41:29;-11.28;47.13
75838;SHT30;64480;52.040;113.502;2023-01-01T06:44:46;-11.21;46.40
75838;SHT30;64480;52.040;113.502;2023-01-01T06:48:12;-11.18;46.36
75838;SHT30;64480;52.040;113.502;2023-01-01T06:51:35;-11.07;46.51
75838;SHT30;64480;52.040;113.502;2023-01-01T06:54:52;-11.11;46.67
75838;SHT30;64480;52.040;113.502;2023-01-01T06:58:04;-11.20;46.79
75838;SHT30;64480;52.040;113.502;2023-01-01T07:01:27;-11.23;47.21
75838;SHT30;64480;52.040;113.502;2023-01-01T07:04:46;-11.25;47.09
75838;SHT30;64480;52.040;113.502;2023-01-01T07:08:11;-11.30;47.35
75838;SHT30;64480;52.040;113.502;2023-01-01T07:11:33;-11.34;47.54
75838;SHT30;64480;52.040;113.502;2023-01-01T07:14:53;-11.32;47.57
75838;SHT30;64480;52.040;113.502;2023-01-01T07:18:11;-11.27;47.46
75838;SHT30;64480;52.040;113.502;2023-01-01T07:24:49;-11.34;47.45
75838;SHT30;64480;52.040;113.502;2023-01-01T07:28:05;-11.41;47.61
75838;SHT30;64480;52.040;113.502;2023-01-01T07:31:22;-11.48;48.08
75838;SHT30;64480;52.040;113.502;2023-01-01T07:34:33;-11.51;47.84
75838;SHT30;64480;52.040;113.502;2023-01-01T07:38:01;-11.55;48.43
75838;SHT30;64480;52.040;113.502;2023-01-01T07:41:18;-11.53;48.18
75838;SHT30;64480;52.040;113.502;2023-01-01T07:44:41;-11.59;48.36
75838;SHT30;64480;52.040;113.502;2023-01-01T07:48:19;-11.63;48.41
75838;SHT30;64480;52.040;113.502;2023-01-01T07:51:25;-11.67;48.27
75838;SHT30;64480;52.040;113.502;2023-01-01T07:54:46;-11.79;48.48
75838;SHT30;64480;52.040;113.502;2023-01-01T07:58:03;-11.93;48.67
75838;SHT30;64480;52.040;113.502;2023-01-01T08:01:20;-12.01;49.05
75838;SHT30;64480;52.040;113.502;2023-01-01T08:04:58;-12.14;49.38
75838;SHT30;64480;52.040;113.502;2023-01-01T08:08:17;-12.25;49.51
75838;SHT30;64480;52.040;113.502;2023-01-01T08:11:34;-12.34;49.93
75838;SHT30;64480;52.040;113.502;2023-01-01T08:14:54;-12.35;50.25
75838;SHT30;64480;52.040;113.502;2023-01-01T08:18:14;-12.44;50.35
75838;SHT30;64480;52.040;113.502;2023-01-01T08:21:45;-12.52;50.52
75838;SHT30;64480;52.040;113.502;2023-01-01T08:25:02;-12.59;50.71
75838;SHT30;64480;52.040;113.502;2023-01-01T08:28:11;-12.62;50.86
75838;SHT30;64480;52.040;113.502;2023-01-01T08:31:32;-12.66;50.85
75838;SHT30;64480;52.040;113.502;2023-01-01T08:34:50;-12.72;51.02
75838;SHT30;64480;52.040;113.502;2023-01-01T08:38:10;-12.77;51.28
75838;SHT30;64480;52.040;113.502;2023-01-01T08:41:27;-12.83;51.31
75838;SHT30;64480;52.040;113.502;2023-01-01T08:44:49;-12.85;51.35
75838;SHT30;64480;52.040;113.502;2023-01-01T08:48:07;-12.87;51.25
75838;SHT30;64480;52.040;113.502;2023-01-01T08:51:23;-12.93;51.55
75838;SHT30;64480;52.040;113.502;2023-01-01T08:54:40;-12.98;51.77
75838;SHT30;64480;52.040;113.502;2023-01-01T08:57:50;-13.02;51.82
75838;SHT30;64480;52.040;113.502;2023-01-01T09:01:08;-13.08;51.90
75838;SHT30;64480;52.040;113.502;2023-01-01T09:04:27;-13.10;52.04
75838;SHT30;64480;52.040;113.502;2023-01-01T09:08:14;-13.11;52.00
75838;SHT30;64480;52.040;113.502;2023-01-01T09:11:33;-13.14;52.17
75838;SHT30;64480;52.040;113.502;2023-01-01T09:15:00;-13.16;52.36
75838;SHT30;64480;52.040;113.502;2023-01-01T09:18:19;-13.21;52.52
75838;SHT30;64480;52.040;113.502;2023-01-01T09:21:38;-13.23;52.57
75838;SHT30;64480;52.040;113.502;2023-01-01T09:24:58;-13.32;52.79
75838;SHT30;64480;52.040;113.502;2023-01-01T09:28:23;-13.36;52.92
75838;SHT30;64480;52.040;113.502;2023-01-01T09:31:44;-13.43;53.08
75838;SHT30;64480;52.040;113.502;2023-01-01T09:34:48;-13.46;53.33
75838;SHT30;64480;52.040;113.502;2023-01-01T09:38:10;-13.51;53.35
75838;SHT30;64480;52.040;113.502;2023-01-01T09:49:06;-13.63;53.65
75838;SHT30;64480;52.040;113.502;2023-01-01T09:52:43;-13.66;53.79
75838;SHT30;64480;52.040;113.502;2023-01-01T09:56:29;-13.68;53.77
75838;SHT30;64480;52.040;113.502;2023-01-01T10:00:14;-13.70;53.82
75838;SHT30;64480;52.040;113.502;2023-01-01T10:04:00;-13.70;53.70
75838;SHT30;64480;52.040;113.502;2023-01-01T10:14:43;-13.74;53.75
75838;SHT30;64480;52.040;113.502;2023-01-01T10:18:20;-13.79;53.80
75838;SHT30;64480;52.040;113.502;2023-01-01T10:21:42;-13.79;53.93
75838;SHT30;64480;52.040;113.502;2023-01-01T10:29:59;-13.85;54.10
75838;SHT30;64480;52.040;113.502;2023-01-01T10:34:35;-13.88;53.99
75838;SHT30;64480;52.040;113.502;2023-01-01T10:37:59;-13.91;54.26
75838;SHT30;64480;52.040;113.502;2023-01-01T10:41:18;-13.96;54.36
75838;SHT30;64480;52.040;113.502;2023-01-01T10:44:35;-13.96;54.37
75838;SHT30;64480;52.040;113.502;2023-01-01T10:51:51;-14.01;54.51
75838;SHT30;64480;52.040;113.502;2023-01-01T10:55:22;-14.04;54.42
75838;SHT30;64480;52.040;113.502;2023-01-01T10:58:54;-14.02;54.33
75838;SHT30;64480;52.040;113.502;2023-01-01T11:02:35;-14.05;54.64
75838;SHT30;64480;52.040;113.502;2023-01-01T11:06:20;-14.09;54.58
75838;SHT30;64480;52.040;113.502;2023-01-01T11:09:39;-14.13;54.77
75838;SHT30;64480;52.040;113.502;2023-01-01T11:13:00;-14.08;54.66
75838;SHT30;64480;52.040;113.502;2023-01-01T11:16:19;-14.13;54.64
75838;SHT30;64480;52.040;113.502;2023-01-01T11:20:01;-14.15;54.84
75838;SHT30;64480;52.040;113.502;2023-01-01T11:23:37;-14.19;54.94
75838;SHT30;64480;52.040;113.502;2023-01-01T11:27:27;-14.25;55.03
75838;SHT30;64480;52.040;113.502;2023-01-01T11:31:15;-14.25;55.08
75838;SHT30;64480;52.040;113.502;2023-01-01T11:34:39;-14.32;55.28
75838;SHT30;64480;52.040;113.502;2023-01-01T11:38:16;-14.34;55.19
75838;SHT30;64480;52.040;113.502;2023-01-01T11:41:48;-14.36;55.25
75838;SHT30;64480;52.040;113.502;2023-01-01T11:45:41;-14.42;55.38
75838;SHT30;64480;52.040;113.502;2023-01-01T11:49:28;-14.42;55.40
75838;SHT30;64480;52.040;113.502;2023-01-01T11:57:16;-14.46;55.63
75838;SHT30;64480;52.040;113.502;2023-01-01T12:01:11;-14.49;55.71
75838;SHT30;64480;52.040;113.502;2023-01-01T12:04:37;-14.56;55.83
75838;SHT30;64480;52.040;113.502;2023-01-01T12:08:31;-14.60;55.97
75838;SHT30;64480;52.040;113.502;2023-01-01T12:16:00;-14.63;55.98
75838;SHT30;64480;52.040;113.502;2023-01-01T12:19:35;-14.68;55.93
75838;SHT30;64480;52.040;113.502;2023-01-01T12:34:42;-14.82;55.50
75838;SHT30;64480;52.040;113.502;2023-01-01T12:49:42;-14.93;56.14
75838;SHT30;64480;52.040;113.502;2023-01-01T12:53:33;-14.98;56.10
75838;SHT30;64480;52.040;113.502;2023-01-01T13:00:21;-14.98;56.21
75838;SHT30;64480;52.040;113.502;2023-01-01T13:03:50;-14.98;56.10
75838;SHT30;64480;52.040;113.502;2023-01-01T13:07:08;-14.99;56.03
75838;SHT30;64480;52.040;113.502;2023-01-01T13:14:09;-15.06;56.21
75838;SHT30;64480;52.040;113.502;2023-01-01T13:17:28;-15.06;56.35
75838;SHT30;64480;52.040;113.502;2023-01-01T13:24:28;-15.15;56.65
75838;SHT30;64480;52.040;113.502;2023-01-01T13:32:16;-15.16;56.50
75838;SHT30;64480;52.040;113.502;2023-01-01T13:44:11;-15.23;56.79
75838;SHT30;64480;52.040;113.502;2023-01-01T13:48:03;-15.24;56.92
75838;SHT30;64480;52.040;113.502;2023-01-01T13:55:28;-15.22;56.83
75838;SHT30;64480;52.040;113.502;2023-01-01T14:02:28;-15.27;57.22
75838;SHT30;64480;52.040;113.502;2023-01-01T14:05:58;-15.26;57.30
75838;SHT30;64480;52.040;113.502;2023-01-01T14:09:18;-15.30;57.49
75838;SHT30;64480;52.040;113.502;2023-01-01T14:16:18;-15.43;57.61
75838;SHT30;64480;52.040;113.502;2023-01-01T14:19:48;-15.50;57.88
75838;SHT30;64480;52.040;113.502;2023-01-01T14:22:59;-15.54;57.98
75838;SHT30;64480;52.040;113.502;2023-01-01T14:26:22;-15.58;58.01
75838;SHT30;64480;52.040;113.502;2023-01-01T14:29:41;-15.65;58.08
75838;SHT30;64480;52.040;113.502;2023-01-01T14:32:58;-15.68;58.25
75838;SHT30;64480;52.040;113.502;2023-01-01T14:36:26;-15.71;58.23
75838;SHT30;64480;52.040;113.502;2023-01-01T14:40:17;-15.72;58.32
75838;SHT30;64480;52.040;113.502;2023-01-01T14:43:47;-15.79;58.41
75838;SHT30;64480;52.040;113.502;2023-01-01T14:46:56;-15.85;58.65
75838;SHT30;64480;52.040;113.502;2023-01-01T14:53:49;-15.86;58.84
75838;SHT30;64480;52.040;113.502;2023-01-01T14:57:38;-15.89;58.84
75838;SHT30;64480;52.040;113.502;2023-01-01T15:00:45;-15.89;58.92
75838;SHT30;64480;52.040;113.502;2023-01-01T15:03:58;-15.87;58.95
75838;SHT30;64480;52.040;113.502;2023-01-01T15:07:27;-15.89;58.99
75838;SHT30;64480;52.040;113.502;2023-01-01T15:10:45;-15.86;59.06
75838;SHT30;64480;52.040;113.502;2023-01-01T15:13:57;-15.90;58.94
75838;SHT30;64480;52.040;113.502;2023-01-01T15:20:42;-15.90;58.87
75838;SHT30;64480;52.040;113.502;2023-01-01T15:24:19;-15.92;58.93
75838;SHT30;64480;52.040;113.502;2023-01-01T15:27:38;-15.96;59.10
75838;SHT30;64480;52.040;113.502;2023-01-01T15:30:52;-15.93;59.23
75838;SHT30;64480;52.040;113.502;2023-01-01T15:38:45;-16.03;59.12
75838;SHT30;64480;52.040;113.502;2023-01-01T15:42:21;-16.04;59.36
75838;SHT30;64480;52.040;113.502;2023-01-01T15:45:41;-16.04;59.35
75838;SHT30;64480;52.040;113.502;2023-01-01T15:49:22;-16.04;59.36
75838;SHT30;64480;52.040;113.502;2023-01-01T15:52:42;-16.06;59.33
75838;SHT30;64480;52.040;113.502;2023-01-01T15:56:08;-16.07;59.38
75838;SHT30;64480;52.040;113.502;2023-01-01T15:59:35;-15.97;59.36
75838;SHT30;64480;52.040;113.502;2023-01-01T16:02:43;-15.99;59.18
75838;SHT30;64480;52.040;113.502;2023-01-01T16:06:01;-15.93;58.98
75838;SHT30;64480;52.040;113.502;2023-01-01T16:09:24;-15.94;58.85
75838;SHT30;64480;52.040;113.502;2023-01-01T16:12:33;-15.94;58.84
75838;SHT30;64480;52.040;113.502;2023-01-01T16:16:23;-15.96;58.68
75838;SHT30;64480;52.040;113.502;2023-01-01T16:19:41;-15.94;58.68
75838;SHT30;64480;52.040;113.502;2023-01-01T16:23:00;-15.94;58.71
75838;SHT30;64480;52.040;113.502;2023-01-01T16:26:07;-15.94;58.83
75838;SHT30;64480;52.040;113.502;2023-01-01T16:29:26;-15.96;58.70
75838;SHT30;64480;52.040;113.502;2023-01-01T16:32:46;-15.94;58.61
75838;SHT30;64480;52.040;113.502;2023-01-01T16:36:09;-15.96;58.54
75838;SHT30;64480;52.040;113.502;2023-01-01T16:39:18;-15.97;58.53
75838;SHT30;64480;52.040;113.502;2023-01-01T16:42:35;-15.94;58.62
75838;SHT30;64480;52.040;113.502;2023-01-01T16:45:42;-15.96;58.47
75838;SHT30;64480;52.040;113.502;2023-01-01T16:48:58;-15.96;58.39
75838;SHT30;64480;52.040;113.502;2023-01-01T16:52:18;-16.00;58.45
75838;SHT30;64480;52.040;113.502;2023-01-01T16:55:26;-16.01;58.51
75838;SHT30;64480;52.040;113.502;2023-01-01T16:58:39;-16.03;58.45
75838;SHT30;64480;52.040;113.502;2023-01-01T17:01:55;-15.99;58.54
75838;SHT30;64480;52.040;113.502;2023-01-01T17:05:05;-16.01;58.59
75838;SHT30;64480;52.040;113.502;2023-01-01T17:08:12;-16.06;58.69
75838;SHT30;64480;52.040;113.502;2023-01-01T17:11:29;-16.04;58.59
75838;SHT30;64480;52.040;113.502;2023-01-01T17:14:47;-16.09;58.58
75838;SHT30;64480;52.040;113.502;2023-01-01T17:17:58;-16.16;58.82
75838;SHT30;64480;52.040;113.502;2023-01-01T17:21:12;-16.28;58.59
75838;SHT30;64480;52.040;113.502;2023-01-01T17:24:32;-16.38;59.32
75838;SHT30;64480;52.040;113.502;2023-01-01T17:27:48;-16.41;59.40
75838;SHT30;64480;52.040;113.502;2023-01-01T17:31:07;-16.45;59.63
75838;SHT30;64480;52.040;113.502;2023-01-01T17:34:15;-16.46;59.45
75838;SHT30;64480;52.040;113.502;2023-01-01T17:37:37;-16.48;59.82
75838;SHT30;64480;52.040;113.502;2023-01-01T17:40:44;-16.49;59.69
75838;SHT30;64480;52.040;113.502;2023-01-01T17:44:02;-16.53;59.84
75838;SHT30;64480;52.040;113.502;2023-01-01T17:54:15;-16.58;60.00
75838;SHT30;64480;52.040;113.502;2023-01-01T17:57:33;-16.53;59.83
75838;SHT30;64480;52.040;113.502;2023-01-01T18:00:37;-16.58;59.83
75838;SHT30;64480;52.040;113.502;2023-01-01T18:03:41;-16.53;59.84
75838;SHT30;64480;52.040;113.502;2023-01-01T18:06:57;-16.51;59.65
75838;SHT30;64480;52.040;113.502;2023-01-01T18:10:16;-16.45;59.51
75838;SHT30;64480;52.040;113.502;2023-01-01T18:13:25;-16.48;59.51
75838;SHT30;64480;52.040;113.502;2023-01-01T18:16:32;-16.46;59.53
75838;SHT30;64480;52.040;113.502;2023-01-01T18:19:44;-16.49;59.40
75838;SHT30;64480;52.040;113.502;2023-01-01T18:22:56;-16.46;59.70
75838;SHT30;64480;52.040;113.502;2023-01-01T18:26:02;-16.48;59.53
75838;SHT30;64480;52.040;113.502;2023-01-01T18:29:19;-16.49;59.53
75838;SHT30;64480;52.040;113.502;2023-01-01T18:32:36;-16.52;59.31
75838;SHT30;64480;52.040;113.502;2023-01-01T18:35:42;-16.49;59.41
75838;SHT30;64480;52.040;113.502;2023-01-01T18:39:21;-16.52;59.51
75838;SHT30;64480;52.040;113.502;2023-01-01T18:42:44;-16.56;59.74
75838;SHT30;64480;52.040;113.502;2023-01-01T18:50:13;-16.56;59.85
75838;SHT30;64480;52.040;113.502;2023-01-01T18:53:30;-16.69;59.29
75838;SHT30;64480;52.040;113.502;2023-01-01T18:56:38;-16.67;59.67
75838;SHT30;64480;52.040;113.502;2023-01-01T18:59:46;-16.69;60.00
75838;SHT30;64480;52.040;113.502;2023-01-01T19:03:24;-16.67;59.76
75838;SHT30;64480;52.040;113.502;2023-01-01T19:06:45;-16.62;59.79
75838;SHT30;64480;52.040;113.502;2023-01-01T19:09:52;-16.79;59.11
75838;SHT30;64480;52.040;113.502;2023-01-01T19:16:38;-17.10;59.97
75838;SHT30;64480;52.040;113.502;2023-01-01T19:19:48;-17.13;60.18
75838;SHT30;64480;52.040;113.502;2023-01-01T19:22:54;-17.11;60.42
75838;SHT30;64480;52.040;113.502;2023-01-01T19:26:01;-16.96;60.41
75838;SHT30;64480;52.040;113.502;2023-01-01T19:29:17;-16.97;60.29
75838;SHT30;64480;52.040;113.502;2023-01-01T19:32:29;-16.92;60.23
75838;SHT30;64480;52.040;113.502;2023-01-01T19:35:37;-16.97;60.13
75838;SHT30;64480;52.040;113.502;2023-01-01T19:38:44;-16.90;60.11
75838;SHT30;64480;52.040;113.502;2023-01-01T19:41:51;-16.89;59.85
75838;SHT30;64480;52.040;113.502;2023-01-01T19:45:09;-16.89;59.87
75838;SHT30;64480;52.040;113.502;2023-01-01T19:48:27;-16.89;59.86
75838;SHT30;64480;52.040;113.502;2023-01-01T19:51:36;-16.90;59.73
75838;SHT30;64480;52.040;113.502;2023-01-01T19:54:42;-16.87;59.67
75838;SHT30;64480;52.040;113.502;2023-01-01T19:57:56;-16.87;59.66
75838;SHT30;64480;52.040;113.502;2023-01-01T20:01:08;-16.86;59.62
75838;SHT30;64480;52.040;113.502;2023-01-01T20:04:25;-16.87;59.56
75838;SHT30;64480;52.040;113.502;2023-01-01T20:07:43;-16.89;59.42
75838;SHT30;64480;52.040;113.502;2023-01-01T20:10:51;-16.89;59.33
75838;SHT30;64480;52.040;113.502;2023-01-01T20:13:55;-16.89;59.29
75838;SHT30;64480;52.040;113.502;2023-01-01T20:17:00;-16.86;59.18
75838;SHT30;64480;52.040;113.502;2023-01-01T20:20:19;-16.90;59.20
75838;SHT30;64480;52.040;113.502;2023-01-01T20:23:39;-16.86;59.26
75838;SHT30;64480;52.040;113.502;2023-01-01T20:26:55;-16.84;59.06
75838;SHT30;64480;52.040;113.502;2023-01-01T20:30:06;-16.89;59.02
75838;SHT30;64480;52.040;113.502;2023-01-01T20:33:24;-16.93;59.24
75838;SHT30;64480;52.040;113.502;2023-01-01T20:36:31;-17.06;59.10
75838;SHT30;64480;52.040;113.502;2023-01-01T20:39:53;-17.11;59.54
75838;SHT30;64480;52.040;113.502;2023-01-01T20:43:00;-17.17;59.65
75838;SHT30;64480;52.040;113.502;2023-01-01T20:46:35;-17.28;59.75
75838;SHT30;64480;52.040;113.502;2023-01-01T20:49:53;-17.30;60.16
75838;SHT30;64480;52.040;113.502;2023-01-01T20:53:10;-17.42;60.20
75838;SHT30;64480;52.040;113.502;2023-01-01T20:56:27;-17.52;60.38
75838;SHT30;64480;52.040;113.502;2023-01-01T20:59:46;-17.65;60.47
75838;SHT30;64480;52.040;113.502;2023-01-01T21:02:51;-17.78;60.78
75838;SHT30;64480;52.040;113.502;2023-01-01T21:06:02;-17.88;60.84
75838;SHT30;64480;52.040;113.502;2023-01-01T21:12:46;-17.98;61.43
75838;SHT30;64480;52.040;113.502;2023-01-01T21:16:20;-18.04;61.58
75838;SHT30;64480;52.040;113.502;2023-01-01T21:19:39;-18.05;61.80
75838;SHT30;64480;52.040;113.502;2023-01-01T21:22:58;-18.05;61.84
75838;SHT30;64480;52.040;113.502;2023-01-01T21:26:30;-18.07;61.96
75838;SHT30;64480;52.040;113.502;2023-01-01T21:29:50;-18.14;61.91
75838;SHT30;64480;52.040;113.502;2023-01-01T21:33:12;-18.18;61.87
75838;SHT30;64480;52.040;113.502;2023-01-01T21:36:27;-18.24;61.98
75838;SHT30;64480;52.040;113.502;2023-01-01T21:39:45;-18.30;61.96
75838;SHT30;64480;52.040;113.502;2023-01-01T21:46:35;-18.32;62.67
75838;SHT30;64480;52.040;113.502;2023-01-01T21:49:53;-18.30;62.41
75838;SHT30;64480;52.040;113.502;2023-01-01T21:53:15;-18.39;62.23
75838;SHT30;64480;52.040;113.502;2023-01-01T21:56:34;-18.46;61.95
75838;SHT30;64480;52.040;113.502;2023-01-01T22:03:13;-18.65;62.91
75838;SHT30;64480;52.040;113.502;2023-01-01T22:06:46;-18.75;63.11
75838;SHT30;64480;52.040;113.502;2023-01-01T22:09:55;-18.77;63.38
75838;SHT30;64480;52.040;113.502;2023-01-01T22:13:14;-18.88;62.33
75838;SHT30;64480;52.040;113.502;2023-01-01T22:16:27;-18.93;62.77
75838;SHT30;64480;52.040;113.502;2023-01-01T22:20:12;-19.02;61.98
75838;SHT30;64480;52.040;113.502;2023-01-01T22:23:39;-19.02;63.28
75838;SHT30;64480;52.040;113.502;2023-01-01T22:27:01;-19.18;61.77
75838;SHT30;64480;52.040;113.502;2023-01-01T22:30:38;-19.23;62.47
75838;SHT30;64480;52.040;113.502;2023-01-01T22:33:46;-19.54;60.58
75838;SHT30;64480;52.040;113.502;2023-01-01T22:37:15;-20.17;58.06
75838;SHT30;64480;52.040;113.502;2023-01-01T22:40:34;-20.54;57.85
75838;SHT30;64480;52.040;113.502;2023-01-01T22:44:07;-20.72;57.79
75838;SHT30;64480;52.040;113.502;2023-01-01T22:47:17;-20.73;59.46
75838;SHT30;64480;52.040;113.502;2023-01-01T22:50:37;-20.93;59.36
75838;SHT30;64480;52.040;113.502;2023-01-01T22:53:56;-21.02;59.90
75838;SHT30;64480;52.040;113.502;2023-01-01T22:57:05;-21.08;60.11
75838;SHT30;64480;52.040;113.502;2023-01-01T23:00:18;-21.17;59.80
75838;SHT30;64480;52.040;113.502;2023-01-01T23:03:22;-21.18;60.55
75838;SHT30;64480;52.040;113.502;2023-01-01T23:06:43;-21.28;60.26
75838;SHT30;64480;52.040;113.502;2023-01-01T23:10:03;-21.27;60.27
75838;SHT30;64480;52.040;113.502;2023-01-01T23:13:14;-21.30;60.22